Time;durP1;ratioP1;P1;durP2;ratioP2;P2;SDS_P1;SDS_P2;PMS_P1;PMS_P2;Temp;Humidity;BMP_temperature;BMP_pressure;BME280_temperature;BME280_humidity;BME280_pressure;Samples;Min_cycle;Max_cycle;Signal;HPM_P1;HPM_P2
2021/12/09 00:01:01;;;;;;;;;1.00;1.00;;;;;21.84;34.96;100276.88;5031582;28;45283;-75
2021/12/09 00:03:34;;;;;;;;;3.33;0.00;;;;;21.85;35.31;100281.97;5031486;28;45339;-75
2021/12/09 00:06:00;;;;;;;;;0.50;0.00;;;;;21.85;34.68;100270.56;5031144;28;45526;-75
2021/12/09 00:08:28;;;;;;;;;2.00;2.00;;;;;21.72;34.85;100258.06;5030301;28;45283;-75
2021/12/09 00:10:56;;;;;;;;;0.00;0.00;;;;;21.83;34.60;100277.91;5033542;28;45260;-75
2021/12/09 00:13:23;;;;;;;;;0.00;0.00;;;;;21.84;35.36;100277.69;5031447;28;45495;-75
2021/12/09 00:15:49;;;;;;;;;0.00;0.00;;;;;21.84;35.28;100268.91;5031148;27;45353;-75
2021/12/09 00:18:15;;;;;;;;;1.50;0.00;;;;;21.81;35.11;100266.66;5031266;28;45388;-74
2021/12/09 00:20:40;;;;;;;;;1.00;1.00;;;;;21.83;35.28;100269.94;5029457;27;45571;-75
2021/12/09 00:23:07;;;;;;;;;2.75;0.00;;;;;21.70;35.09;100244.19;5033024;28;45349;-75
2021/12/09 00:25:33;;;;;;;;;0.00;0.00;;;;;21.69;35.33;100242.53;5030443;28;45463;-75
2021/12/09 00:27:59;;;;;;;;;2.50;1.00;;;;;21.79;35.07;100266.84;5031207;27;45476;-76
2021/12/09 00:30:24;;;;;;;;;1.00;0.00;;;;;21.76;35.13;100263.75;5031164;28;45374;-75
2021/12/09 00:32:50;;;;;;;;;1.00;1.00;;;;;21.49;34.86;100224.69;5031175;28;45506;-77
2021/12/09 00:35:17;;;;;;;;;0.00;0.00;;;;;21.80;35.09;100273.81;5032032;28;47160;-75
2021/12/09 00:38:01;;;;;;;;;0.67;0.67;;;;;21.75;34.58;100265.63;5030716;28;45403;-74
2021/12/09 00:40:27;;;;;;;;;0.00;0.00;;;;;21.71;35.00;100256.41;5031072;28;45332;-74
2021/12/09 00:42:52;;;;;;;;;2.00;0.00;;;;;21.67;35.22;100247.22;5031008;28;45436;-75
2021/12/09 00:45:18;;;;;;;;;1.75;1.75;;;;;21.65;35.01;100247.38;5030953;28;45897;-76
2021/12/09 00:47:44;;;;;;;;;1.00;0.00;;;;;21.82;35.15;100274.41;5031090;28;45438;-75
2021/12/09 00:50:10;;;;;;;;;1.00;1.00;;;;;21.83;35.04;100299.06;5032017;28;45355;-75
2021/12/09 00:52:36;;;;;;;;;0.00;0.00;;;;;21.80;34.61;100302.94;5011788;28;45577;-75
2021/12/09 00:55:04;;;;;;;;;3.00;1.00;;;;;21.84;34.82;100309.47;5025567;28;46008;-75
2021/12/09 00:57:30;;;;;;;;;0.00;0.00;;;;;21.84;34.79;100319.25;5030594;28;45458;-76
2021/12/09 00:59:55;;;;;;;;;0.00;0.00;;;;;21.71;34.78;100289.00;5029612;28;45535;-75
2021/12/09 01:02:21;;;;;;;;;1.50;0.75;;;;;21.71;35.01;100285.53;5030996;28;45342;-75
2021/12/09 01:04:47;;;;;;;;;1.00;1.00;;;;;21.83;34.81;100283.19;5032363;28;47010;-75
2021/12/09 01:07:14;;;;;;;;;0.50;0.50;;;;;21.72;34.89;100250.94;5030661;27;45524;-75
2021/12/09 01:09:39;;;;;;;;;1.00;1.00;;;;;21.65;35.04;100220.91;5030642;27;45295;-75
2021/12/09 01:12:06;;;;;;;;;0.00;0.00;;;;;21.81;34.72;100266.66;5030959;28;46045;-75
2021/12/09 01:14:32;;;;;;;;;0.25;0.00;;;;;21.68;34.88;100265.53;5030153;28;47148;-75
2021/12/09 01:16:57;;;;;;;;;1.00;1.00;;;;;21.60;34.65;100263.84;5011261;28;45389;-76
2021/12/09 01:19:23;;;;;;;;;0.00;0.00;;;;;21.79;34.58;100289.88;5029246;28;45379;-75
2021/12/09 01:21:48;;;;;;;;;0.00;0.00;;;;;21.79;34.77;100288.03;5030590;27;45560;-75
2021/12/09 01:24:14;;;;;;;;;1.00;0.00;;;;;21.79;34.73;100280.09;5030383;28;45336;-75
2021/12/09 01:26:41;;;;;;;;;0.00;0.00;;;;;21.78;34.98;100267.06;5030810;27;45434;-75
2021/12/09 01:29:15;;;;;;;;;1.33;1.00;;;;;21.65;35.22;100244.75;5032325;28;45543;-75
2021/12/09 01:31:41;;;;;;;;;0.00;0.00;;;;;21.58;34.71;100238.59;5031762;28;45532;-75
2021/12/09 01:34:08;;;;;;;;;0.00;0.00;;;;;21.58;34.93;100239.41;5029823;28;45314;-75
2021/12/09 01:36:36;;;;;;;;;2.00;1.25;;;;;21.72;34.97;100260.69;5030239;27;45441;-75
2021/12/09 01:39:04;;;;;;;;;0.00;0.00;;;;;21.72;35.20;100261.53;5029075;28;45301;-75
2021/12/09 01:41:30;;;;;;;;;1.67;1.00;;;;;21.76;34.77;100282.28;5030541;28;45245;-75
2021/12/09 01:43:56;;;;;;;;;0.50;0.25;;;;;21.36;34.91;100233.34;5031795;27;45595;-75
2021/12/09 01:46:22;;;;;;;;;1.75;1.75;;;;;21.75;35.07;100289.44;5030100;28;45300;-75
2021/12/09 01:48:49;;;;;;;;;1.00;1.00;;;;;21.74;34.85;100293.91;5029927;28;45543;-75
2021/12/09 01:51:15;;;;;;;;;0.25;0.25;;;;;21.74;34.75;100288.63;5012176;27;45465;-75
2021/12/09 01:53:41;;;;;;;;;1.00;1.00;;;;;21.63;35.18;100267.94;5028830;28;47391;-75
2021/12/09 01:56:11;;;;;;;;;1.25;0.00;;;;;21.62;34.86;100271.63;5031450;28;45405;-75
2021/12/09 01:58:37;;;;;;;;;2.25;1.00;;;;;21.71;34.89;100280.22;5031158;28;45301;-75
2021/12/09 02:01:05;;;;;;;;;0.00;0.00;;;;;21.74;34.93;100285.16;5029715;28;45278;-75
2021/12/09 02:03:31;;;;;;;;;0.67;0.00;;;;;21.73;34.70;100286.16;5029626;27;46085;-75
2021/12/09 02:05:57;;;;;;;;;0.00;0.00;;;;;21.72;34.49;100290.66;5030416;28;45536;-75
2021/12/09 02:08:24;;;;;;;;;2.00;0.75;;;;;21.72;35.03;100285.34;5029989;27;45433;-75
2021/12/09 02:10:51;;;;;;;;;1.00;1.00;;;;;21.72;34.61;100290.66;5031958;27;45457;-75
2021/12/09 02:13:17;;;;;;;;;0.75;0.75;;;;;21.69;34.48;100287.56;5029705;27;45507;-76
2021/12/09 02:15:43;;;;;;;;;2.00;0.00;;;;;21.67;34.92;100282.47;5029496;28;45421;-75
2021/12/09 02:18:12;;;;;;;;;1.33;0.00;;;;;21.71;34.41;100290.81;5027977;28;45303;-76
2021/12/09 02:20:39;;;;;;;;;0.67;0.00;;;;;21.50;35.06;100252.78;5029656;27;45498;-76
2021/12/09 02:23:09;;;;;;;;;1.00;1.00;;;;;21.71;34.55;100280.22;5031204;28;46103;-76
2021/12/09 02:25:37;;;;;;;;;1.00;1.00;;;;;21.63;34.77;100260.84;5030174;28;45440;-76
2021/12/09 02:28:03;;;;;;;;;3.00;1.67;;;;;21.71;35.08;100273.13;5029558;28;45438;-76
2021/12/09 02:30:29;;;;;;;;;1.00;1.00;;;;;21.61;34.93;100264.69;5030646;28;45528;-73
2021/12/09 02:32:54;;;;;;;;;1.00;1.00;;;;;21.65;34.75;100281.81;5030683;27;45326;-76
2021/12/09 02:35:20;;;;;;;;;0.75;0.75;;;;;21.70;34.93;100292.66;5032736;28;45365;-76
2021/12/09 02:37:45;;;;;;;;;0.00;0.00;;;;;21.60;34.45;100270.97;5034761;28;45425;-75
2021/12/09 02:40:12;;;;;;;;;0.00;0.00;;;;;21.73;35.02;100300.22;5032576;28;45488;-75
2021/12/09 02:42:38;;;;;;;;;0.00;0.00;;;;;21.73;34.63;100297.56;5032465;28;45390;-76
2021/12/09 02:45:06;;;;;;;;;0.50;0.50;;;;;21.74;34.99;100291.28;5032338;28;45783;-76
2021/12/09 02:47:32;;;;;;;;;1.00;1.00;;;;;21.63;34.58;100276.72;5016301;28;45276;-76
2021/12/09 02:49:58;;;;;;;;;1.00;0.50;;;;;21.74;34.58;100285.97;5034648;27;45325;-76
2021/12/09 02:52:23;;;;;;;;;0.33;0.33;;;;;21.74;34.57;100285.16;5032388;28;46158;-76
2021/12/09 02:54:48;;;;;;;;;1.00;0.00;;;;;21.70;34.88;100281.25;5032200;28;45487;-76
2021/12/09 02:57:14;;;;;;;;;0.50;0.00;;;;;21.72;34.50;100290.66;5031029;28;45687;-76
2021/12/09 02:59:39;;;;;;;;;1.50;1.00;;;;;21.63;34.55;100279.38;5032551;27;45468;-75
2021/12/09 03:02:07;;;;;;;;;0.00;0.00;;;;;21.70;34.96;100295.28;5033844;28;45992;-75
2021/12/09 03:04:54;;;;;;;;;1.00;0.00;;;;;21.39;34.89;100254.94;5032730;27;45408;-75
2021/12/09 03:07:41;;;;;;;;;0.25;0.25;;;;;21.65;34.85;100287.09;5032316;28;45412;-75
2021/12/09 03:10:19;;;;;;;;;0.00;0.00;;;;;21.70;34.68;100295.28;5032118;28;45417;-75
2021/12/09 03:12:46;;;;;;;;;0.50;0.00;;;;;21.61;34.59;100284.03;5030746;28;46300;-75
2021/12/09 03:15:11;;;;;;;;;1.00;0.00;;;;;21.70;34.30;100291.84;5031809;28;45296;-76
2021/12/09 03:17:38;;;;;;;;;0.67;0.67;;;;;21.61;34.85;100276.09;5032333;28;45431;-75
2021/12/09 03:20:06;;;;;;;;;0.00;0.00;;;;;21.69;34.98;100283.09;5034305;27;45331;-76
2021/12/09 03:22:33;;;;;;;;;1.00;1.00;;;;;21.68;34.98;100292.03;5029983;28;47524;-75
2021/12/09 03:24:58;;;;;;;;;0.00;0.00;;;;;21.69;34.60;100287.56;5031894;28;45590;-75
2021/12/09 03:27:23;;;;;;;;;0.00;0.00;;;;;21.60;34.54;100282.38;5032135;28;45364;-75
2021/12/09 03:29:49;;;;;;;;;0.00;0.00;;;;;21.63;35.00;100283.84;5031777;28;45410;-75
2021/12/09 03:32:17;;;;;;;;;0.00;0.00;;;;;21.68;34.68;100302.63;5032661;28;46049;-75
2021/12/09 03:34:44;;;;;;;;;0.25;0.25;;;;;21.55;35.06;100284.78;5033572;28;45497;-76
2021/12/09 03:37:12;;;;;;;;;0.00;0.00;;;;;21.52;35.00;100283.34;5030595;28;45229;-77
2021/12/09 03:39:40;;;;;;;;;0.25;0.25;;;;;21.68;34.77;100307.09;5031958;27;45468;-76
2021/12/09 03:42:08;;;;;;;;;0.00;0.00;;;;;21.64;34.53;100306.66;5031691;28;45342;-76
2021/12/09 03:44:34;;;;;;;;;1.00;0.00;;;;;21.62;34.88;100312.13;5014457;28;45368;-76
2021/12/09 03:47:04;;;;;;;;;0.00;0.00;;;;;21.68;34.67;100322.97;5029714;28;45433;-76
2021/12/09 03:49:29;;;;;;;;;1.25;0.50;;;;;21.67;34.39;100313.41;5032330;27;45569;-75
2021/12/09 03:51:56;;;;;;;;;0.00;0.00;;;;;21.60;34.50;100313.34;5030356;28;46229;-76
2021/12/09 03:54:23;;;;;;;;;1.00;0.50;;;;;21.66;34.85;100323.16;5031614;28;45423;-75
2021/12/09 03:56:48;;;;;;;;;1.00;0.50;;;;;21.67;34.77;100331.94;5031480;28;45390;-76
2021/12/09 03:59:14;;;;;;;;;0.00;0.00;;;;;21.67;34.77;100324.00;5032314;28;45393;-75
2021/12/09 04:01:42;;;;;;;;;1.00;1.00;;;;;21.66;34.60;100320.53;5032939;28;45377;-75
2021/12/09 04:04:08;;;;;;;;;0.00;0.00;;;;;21.63;34.98;100307.66;5031384;28;45440;-75
2021/12/09 04:06:34;;;;;;;;;0.00;0.00;;;;;21.66;34.54;100314.41;5031455;28;45437;-75
2021/12/09 04:09:00;;;;;;;;;3.00;0.00;;;;;21.66;34.83;100322.34;5031512;27;45433;-75
2021/12/09 04:11:26;;;;;;;;;1.00;0.00;;;;;21.52;34.47;100307.16;5031350;28;46133;-75
2021/12/09 04:13:52;;;;;;;;;2.00;0.00;;;;;21.53;34.86;100308.00;5033524;27;45358;-75
2021/12/09 04:16:17;;;;;;;;;1.00;0.00;;;;;21.67;34.54;100338.06;5029934;28;45342;-76
2021/12/09 04:18:44;;;;;;;;;0.50;0.25;;;;;21.67;34.76;100332.75;5031416;28;45329;-75
2021/12/09 04:21:12;;;;;;;;;0.00;0.00;;;;;21.67;34.60;100324.00;5030987;28;47177;-76
2021/12/09 04:23:38;;;;;;;;;0.00;0.00;;;;;21.63;34.99;100319.06;5031304;28;45553;-75
2021/12/09 04:26:04;;;;;;;;;0.25;0.00;;;;;21.59;34.84;100317.00;5033863;28;45621;-76
2021/12/09 04:28:30;;;;;;;;;0.33;0.33;;;;;21.60;34.71;100315.97;5029754;28;45498;-75
2021/12/09 04:30:56;;;;;;;;;0.00;0.00;;;;;21.65;34.67;100316.22;5029801;27;46142;-75
2021/12/09 04:33:21;;;;;;;;;0.75;0.75;;;;;21.58;34.86;100308.25;5031233;28;45580;-75
2021/12/09 04:35:47;;;;;;;;;0.67;0.00;;;;;21.62;34.67;100319.28;5031373;28;45387;-76
2021/12/09 04:38:12;;;;;;;;;1.00;1.00;;;;;21.65;34.85;100324.16;5032472;28;45400;-77
2021/12/09 04:40:38;;;;;;;;;0.00;0.00;;;;;21.68;34.73;100317.66;5011282;27;46299;-76
2021/12/09 04:43:03;;;;;;;;;0.00;0.00;;;;;21.62;34.59;100316.63;5027371;28;45423;-76
2021/12/09 04:45:30;;;;;;;;;0.00;0.00;;;;;21.61;34.36;100317.63;5031155;28;45383;-75
2021/12/09 04:47:56;;;;;;;;;0.00;0.00;;;;;21.55;34.24;100321.03;5031148;28;45230;-75
2021/12/09 04:50:22;;;;;;;;;0.00;0.00;;;;;21.68;34.43;100338.84;5031066;28;45290;-75
2021/12/09 04:52:47;;;;;;;;;0.00;0.00;;;;;21.67;34.41;100332.75;5032402;27;45390;-75
2021/12/09 04:55:13;;;;;;;;;2.00;0.00;;;;;21.67;34.55;100338.06;5029595;28;45485;-76
2021/12/09 04:57:42;;;;;;;;;1.00;0.00;;;;;21.54;34.56;100328.16;5030560;28;45284;-75
2021/12/09 05:00:11;;;;;;;;;0.00;0.00;;;;;21.67;34.35;100353.94;5030715;28;45491;-75
2021/12/09 05:05:11;;;;;;;;;1.67;1.00;;;;;21.65;34.64;100360.44;5032217;28;45346;-76
2021/12/09 05:07:36;;;;;;;;;0.00;0.00;;;;;21.62;34.75;100357.13;5031571;28;45503;-75
2021/12/09 05:10:03;;;;;;;;;0.67;0.67;;;;;21.65;34.75;100363.09;5029549;28;45588;-75
2021/12/09 05:12:28;;;;;;;;;0.33;0.00;;;;;21.57;34.47;100354.22;5028695;28;45464;-75
2021/12/09 05:14:53;;;;;;;;;0.00;0.00;;;;;21.58;34.88;100368.28;5029543;28;45459;-75
2021/12/09 05:17:19;;;;;;;;;0.00;0.00;;;;;21.65;34.44;100371.03;5030990;28;45424;-75
2021/12/09 05:19:44;;;;;;;;;1.00;1.00;;;;;21.64;34.77;100372.84;5032415;28;45456;-76
2021/12/09 05:22:10;;;;;;;;;0.33;0.00;;;;;21.48;34.54;100353.56;5030191;28;45919;-75
2021/12/09 05:24:37;;;;;;;;;1.50;0.50;;;;;21.37;34.44;100333.69;5030645;28;45520;-75
2021/12/09 05:27:03;;;;;;;;;3.25;0.25;;;;;21.54;34.23;100364.41;5030167;28;45393;-76
2021/12/09 05:29:36;;;;;;;;;0.00;0.00;;;;;21.63;34.48;100381.78;5030331;28;45547;-76
2021/12/09 05:32:07;;;;;;;;;1.00;1.00;;;;;21.62;34.34;100382.81;5028317;28;45430;-75
2021/12/09 05:34:37;;;;;;;;;0.33;0.33;;;;;21.30;34.46;100330.16;5029643;28;45343;-75
2021/12/09 05:37:04;;;;;;;;;0.00;0.00;;;;;21.63;34.43;100384.44;5030041;28;45463;-75
2021/12/09 05:39:29;;;;;;;;;0.00;0.00;;;;;21.49;34.40;100359.69;5029807;28;47143;-75
2021/12/09 05:41:54;;;;;;;;;0.00;0.00;;;;;21.52;34.41;100367.22;5029921;28;45410;-75
2021/12/09 05:44:20;;;;;;;;;0.00;0.00;;;;;21.47;34.26;100364.31;5030324;28;45316;-76
2021/12/09 05:46:46;;;;;;;;;1.00;1.00;;;;;21.63;34.47;100400.31;5032440;28;45432;-75
2021/12/09 05:49:14;;;;;;;;;0.00;0.00;;;;;21.62;34.84;100398.69;5028736;28;46342;-76
2021/12/09 05:51:41;;;;;;;;;0.00;0.00;;;;;21.62;34.46;100407.44;5029872;28;45539;-75
2021/12/09 05:54:07;;;;;;;;;0.00;0.00;;;;;21.63;34.77;100402.97;5011621;27;45551;-77
2021/12/09 05:56:33;;;;;;;;;0.00;0.00;;;;;21.62;34.45;100396.06;5030070;27;45444;-75
2021/12/09 05:58:59;;;;;;;;;1.00;1.00;;;;;21.64;34.79;100396.69;5031796;28;45460;-75
2021/12/09 06:01:25;;;;;;;;;0.00;0.00;;;;;21.62;34.64;100404.00;5029841;27;45560;-77
2021/12/09 06:03:51;;;;;;;;;2.00;0.75;;;;;21.60;34.47;100398.88;5030007;27;45517;-76
2021/12/09 06:06:17;;;;;;;;;0.00;0.00;;;;;21.67;34.35;100414.00;5032039;28;45513;-75
2021/12/09 06:08:42;;;;;;;;;0.67;0.67;;;;;21.67;34.33;100409.53;5015392;27;45313;-75
2021/12/09 06:11:10;;;;;;;;;1.00;1.00;;;;;21.67;34.76;100403.41;5034589;28;45326;-75
2021/12/09 06:13:37;;;;;;;;;0.67;0.00;;;;;21.67;34.35;100409.53;5032327;28;45457;-76
2021/12/09 06:16:04;;;;;;;;;0.00;0.00;;;;;21.68;34.69;100419.09;5032707;28;45442;-76
2021/12/09 06:18:30;;;;;;;;;0.00;0.00;;;;;21.47;34.68;100382.84;5032614;28;46205;-75
2021/12/09 06:20:55;;;;;;;;;1.00;1.00;;;;;21.57;34.71;100395.78;5032562;28;45466;-75
2021/12/09 06:23:21;;;;;;;;;1.00;1.00;;;;;21.61;34.53;100402.34;5032784;28;45526;-75
2021/12/09 06:25:46;;;;;;;;;0.00;0.00;;;;;21.66;34.27;100405.25;5034895;28;45312;-76
2021/12/09 06:28:12;;;;;;;;;0.67;0.67;;;;;21.71;34.70;100407.31;5031388;28;47039;-75
2021/12/09 06:30:37;;;;;;;;;0.00;0.00;;;;;21.62;34.55;100393.41;5032525;28;45449;-75
2021/12/09 06:33:05;;;;;;;;;0.00;0.00;;;;;21.69;34.41;100404.88;5032736;28;45546;-75
2021/12/09 06:35:31;;;;;;;;;1.75;1.75;;;;;21.71;34.13;100402.03;5032777;28;45410;-75
2021/12/09 06:37:56;;;;;;;;;0.00;0.00;;;;;21.72;34.42;100414.28;5034254;27;45390;-75
2021/12/09 06:40:22;;;;;;;;;1.00;0.00;;;;;21.69;34.52;100415.47;5032591;27;45294;-77
2021/12/09 06:42:50;;;;;;;;;1.00;1.00;;;;;21.42;34.25;100372.81;5032450;28;45413;-76
2021/12/09 06:45:18;;;;;;;;;0.00;0.00;;;;;21.59;34.40;100394.59;5032557;27;45299;-75
2021/12/09 06:47:44;;;;;;;;;0.00;0.00;;;;;21.70;34.40;100411.00;5032532;27;46850;-75
2021/12/09 06:50:12;;;;;;;;;0.00;0.00;;;;;21.73;34.65;100422.00;5033782;28;45517;-75
2021/12/09 06:52:37;;;;;;;;;1.00;0.67;;;;;21.73;34.16;100431.78;5030989;28;45322;-76
2021/12/09 06:55:04;;;;;;;;;1.50;0.00;;;;;21.73;34.20;100435.25;5032432;27;45456;-76
2021/12/09 06:57:30;;;;;;;;;0.00;0.00;;;;;21.55;34.41;100389.84;5032077;27;45594;-76
2021/12/09 06:59:55;;;;;;;;;0.00;0.00;;;;;21.73;34.28;100431.78;5032186;28;45495;-75
2021/12/09 07:02:20;;;;;;;;;1.00;1.00;;;;;21.73;34.11;100434.41;5032489;28;45289;-75
2021/12/09 07:04:46;;;;;;;;;0.00;0.00;;;;;21.72;34.28;100430.97;5034653;27;45324;-76
2021/12/09 07:07:11;;;;;;;;;2.00;0.67;;;;;21.73;34.11;100429.97;5030659;28;46150;-75
2021/12/09 07:09:38;;;;;;;;;1.00;0.25;;;;;21.73;34.33;100435.25;5031901;28;45457;-75
2021/12/09 07:12:03;;;;;;;;;2.00;1.00;;;;;21.73;34.16;100429.97;5032563;27;45323;-78
2021/12/09 07:14:29;;;;;;;;;2.00;1.00;;;;;21.74;34.43;100422.84;5032384;28;45618;-80
2021/12/09 07:16:55;;;;;;;;;0.00;0.00;;;;;21.66;34.30;100409.72;5033793;28;45426;-80
2021/12/09 07:19:20;;;;;;;;;0.25;0.00;;;;;21.74;34.24;100425.47;5031942;27;45433;-80
2021/12/09 07:21:45;;;;;;;;;0.25;0.25;;;;;21.74;34.13;100431.59;5031445;27;45606;-80
2021/12/09 07:24:11;;;;;;;;;1.75;0.25;;;;;21.76;34.02;100427.94;5032114;27;45358;-76
2021/12/09 07:26:36;;;;;;;;;0.00;0.00;;;;;21.70;34.25;100417.09;5032141;28;45407;-75
2021/12/09 07:29:03;;;;;;;;;0.00;0.00;;;;;21.75;34.26;100427.13;5033293;28;45374;-74
2021/12/09 07:31:29;;;;;;;;;0.67;0.00;;;;;21.73;34.88;100429.97;5031094;28;45473;-74
2021/12/09 07:33:57;;;;;;;;;1.00;1.00;;;;;21.74;34.42;100430.78;5031514;28;45450;-74
2021/12/09 07:36:24;;;;;;;;;1.00;0.00;;;;;21.75;34.67;100429.78;5031137;28;46303;-74
2021/12/09 07:38:49;;;;;;;;;1.00;0.00;;;;;21.78;34.78;100428.59;5031120;27;45371;-74
2021/12/09 07:41:16;;;;;;;;;0.00;0.00;;;;;21.78;34.80;100433.88;5032237;28;45309;-74
2021/12/09 07:43:42;;;;;;;;;0.25;0.25;;;;;21.78;35.13;100439.19;5032361;28;45839;-76
2021/12/09 07:46:07;;;;;;;;;2.25;1.00;;;;;21.78;34.96;100426.72;5031167;27;45423;-75
2021/12/09 07:48:33;;;;;;;;;0.50;0.00;;;;;21.70;34.93;100422.38;5030993;28;45540;-75
2021/12/09 07:50:59;;;;;;;;;0.00;0.00;;;;;21.79;34.48;100433.69;5030923;28;45859;-76
2021/12/09 07:53:24;;;;;;;;;1.25;1.00;;;;;21.79;34.89;100436.31;5031655;28;45431;-74
2021/12/09 07:55:52;;;;;;;;;0.00;0.00;;;;;21.80;34.71;100440.63;5033378;27;46201;-73
2021/12/09 07:58:18;;;;;;;;;0.50;0.50;;;;;21.67;34.62;100422.78;5031080;28;45554;-75
2021/12/09 08:00:44;;;;;;;;;1.67;1.00;;;;;21.80;35.07;100445.94;5031511;27;45596;-75
2021/12/09 08:03:10;;;;;;;;;0.75;0.75;;;;;21.82;35.11;100446.56;5031481;28;45447;-75
2021/12/09 08:05:38;;;;;;;;;1.00;0.50;;;;;21.52;34.61;100404.28;5030924;28;46270;-74
2021/12/09 08:08:05;;;;;;;;;1.00;0.75;;;;;21.73;34.85;100439.72;5029400;28;45320;-74
2021/12/09 08:10:30;;;;;;;;;0.00;0.00;;;;;21.49;34.77;100407.31;5031625;28;45611;-74
2021/12/09 08:12:57;;;;;;;;;1.00;0.33;;;;;21.70;35.01;100438.28;5032384;27;45370;-74
2021/12/09 08:15:23;;;;;;;;;0.25;0.25;;;;;21.79;35.12;100452.22;5031228;27;46256;-74
2021/12/09 08:20:33;;;;;;;;;0.00;0.00;;;;;21.60;34.72;100432.47;5031031;27;45780;-74
2021/12/09 08:22:59;;;;;;;;;0.00;0.00;;;;;21.79;34.90;100467.28;5033360;28;45271;-74
2021/12/09 08:25:25;;;;;;;;;0.33;0.00;;;;;21.74;34.85;100462.56;5029917;27;46126;-74
2021/12/09 08:27:51;;;;;;;;;1.00;1.00;;;;;21.78;34.92;100471.75;5030082;27;45524;-74
2021/12/09 08:30:20;;;;;;;;;0.25;0.25;;;;;21.78;34.97;100482.34;5031304;27;45569;-75
2021/12/09 08:32:45;;;;;;;;;2.67;1.00;;;;;21.74;34.70;100471.31;5031467;27;49805;-74
2021/12/09 08:35:11;;;;;;;;;0.00;0.00;;;;;21.77;34.91;100488.66;5032166;28;46080;-74
2021/12/09 08:37:37;;;;;;;;;2.33;1.00;;;;;21.77;34.83;100493.13;5031709;28;45458;-74
2021/12/09 08:40:05;;;;;;;;;2.00;1.00;;;;;21.63;34.60;100488.50;5031161;28;45388;-74
2021/12/09 08:42:30;;;;;;;;;0.75;0.75;;;;;21.74;34.58;100499.63;5031119;27;45450;-74
2021/12/09 08:44:56;;;;;;;;;0.33;0.33;;;;;21.63;34.52;100490.34;5030898;28;46547;-74
2021/12/09 08:47:21;;;;;;;;;0.33;0.33;;;;;21.66;34.74;100492.63;5031875;28;45520;-74
2021/12/09 08:49:46;;;;;;;;;2.00;0.25;;;;;21.74;34.79;100508.41;5030690;28;45434;-74
2021/12/09 08:52:13;;;;;;;;;0.25;0.25;;;;;21.76;34.65;100512.66;5030961;28;45341;-75
2021/12/09 08:54:38;;;;;;;;;1.00;0.67;;;;;21.43;34.77;100464.47;5041548;27;46671;-74
2021/12/09 08:57:04;;;;;;;;;0.67;0.67;;;;;21.76;34.68;100524.09;5030674;28;45405;-73
2021/12/09 08:59:31;;;;;;;;;0.50;0.50;;;;;21.69;34.30;100516.06;5030897;28;45346;-75
2021/12/09 09:01:56;;;;;;;;;0.67;0.00;;;;;21.74;34.81;100531.41;5032912;28;45448;-75
2021/12/09 09:04:22;;;;;;;;;1.00;0.00;;;;;21.72;34.62;100528.94;5029008;28;47334;-75
2021/12/09 09:06:52;;;;;;;;;0.00;0.00;;;;;21.70;34.65;100523.00;5030698;27;45361;-74
2021/12/09 09:09:18;;;;;;;;;2.00;0.00;;;;;21.66;34.84;100519.09;5030827;27;45428;-75
2021/12/09 09:11:44;;;;;;;;;1.00;1.00;;;;;21.72;34.74;100528.94;5030687;27;45417;-75
2021/12/09 09:14:09;;;;;;;;;0.00;0.00;;;;;21.63;34.93;100519.47;5031893;28;45418;-75
2021/12/09 09:16:34;;;;;;;;;1.00;1.00;;;;;21.72;35.04;100533.41;5031347;28;45276;-74
2021/12/09 09:19:00;;;;;;;;;0.00;0.00;;;;;21.69;34.53;100531.97;5030151;28;46187;-74
2021/12/09 09:21:25;;;;;;;;;0.50;0.50;;;;;21.72;34.43;100531.59;5030325;27;45427;-74
2021/12/09 09:23:51;;;;;;;;;0.50;0.50;;;;;21.62;34.76;100518.63;5030395;28;47093;-75
2021/12/09 09:26:17;;;;;;;;;1.00;1.00;;;;;21.70;34.60;100523.00;5031441;28;45662;-74
2021/12/09 09:28:42;;;;;;;;;0.00;0.00;;;;;21.39;34.73;100461.34;5030312;28;45459;-74
2021/12/09 09:31:08;;;;;;;;;0.50;0.50;;;;;21.72;34.55;100514.88;5030233;28;45417;-74
2021/12/09 09:33:34;;;;;;;;;1.25;0.00;;;;;21.69;34.61;100516.06;5029788;28;46458;-73
2021/12/09 09:36:00;;;;;;;;;1.00;1.00;;;;;21.72;34.48;100528.13;5031639;27;45594;-73
2021/12/09 09:38:26;;;;;;;;;2.00;1.00;;;;;21.65;34.68;100511.34;5030596;28;45499;-74
2021/12/09 09:41:08;;;;;;;;;1.50;1.00;;;;;21.72;34.82;100518.34;5035364;27;45476;-74
2021/12/09 09:46:26;;;;;;;;;3.00;0.00;;;;;21.67;34.73;100520.75;5032664;28;45422;-74
2021/12/09 09:48:54;;;;;;;;;0.00;0.00;;;;;21.44;34.48;100478.53;5033057;28;45428;-74
2021/12/09 09:51:22;;;;;;;;;0.00;0.00;;;;;21.72;34.82;100525.47;5032952;28;45422;-74
2021/12/09 09:53:48;;;;;;;;;1.00;1.00;;;;;21.72;34.72;100515.72;5033008;28;45358;-74
2021/12/09 09:56:19;;;;;;;;;0.50;0.50;;;;;21.59;34.87;100497.84;5034219;28;45662;-74
2021/12/09 09:58:49;;;;;;;;;2.00;1.00;;;;;21.73;34.84;100516.50;5034774;28;45475;-74
2021/12/09 10:01:16;;;;;;;;;0.00;0.00;;;;;21.67;34.50;100506.69;5032666;27;45522;-74
2021/12/09 10:03:46;;;;;;;;;2.00;1.00;;;;;21.63;34.48;100504.41;5032709;28;46193;-74
2021/12/09 10:06:13;;;;;;;;;0.00;0.00;;;;;21.72;34.54;100531.59;5031362;28;45465;-74
2021/12/09 10:08:38;;;;;;;;;1.00;1.00;;;;;21.73;34.64;100527.09;5033101;28;45396;-74
2021/12/09 10:11:05;;;;;;;;;2.00;0.75;;;;;21.63;34.54;100512.34;5035157;28;45313;-74
2021/12/09 10:13:36;;;;;;;;;1.00;0.75;;;;;21.67;34.74;100527.88;5032736;28;46379;-74
2021/12/09 10:16:05;;;;;;;;;0.75;0.00;;;;;21.66;34.36;100524.38;5032534;27;45495;-73
2021/12/09 10:18:40;;;;;;;;;1.25;0.00;;;;;21.71;34.39;100535.25;5032594;28;45392;-74
2021/12/09 10:21:08;;;;;;;;;1.75;0.00;;;;;21.68;34.56;100532.97;5031637;27;45450;-74
2021/12/09 10:23:37;;;;;;;;;1.00;1.00;;;;;21.58;34.87;100511.25;5032684;28;46403;-74
2021/12/09 10:26:10;;;;;;;;;2.50;2.00;;;;;21.70;34.64;100535.44;5030781;28;45465;-74
2021/12/09 10:28:37;;;;;;;;;0.75;0.75;;;;;21.70;34.63;100538.88;5032339;28;45544;-74
2021/12/09 10:31:14;;;;;;;;;2.00;0.00;;;;;21.65;34.84;100528.03;5032241;27;45355;-74
2021/12/09 10:34:02;;;;;;;;;1.00;0.00;;;;;21.71;34.48;100535.25;5032372;28;46241;-74
2021/12/09 10:36:48;;;;;;;;;0.00;0.00;;;;;21.69;34.55;100525.84;5032502;28;45488;-74
2021/12/09 10:39:32;;;;;;;;;0.50;0.25;;;;;21.69;34.73;100524.03;5032759;28;45410;-74
2021/12/09 10:42:01;;;;;;;;;1.00;0.00;;;;;21.69;34.61;100523.19;5032670;28;45552;-74
2021/12/09 10:44:36;;;;;;;;;0.25;0.25;;;;;21.54;34.76;100499.41;5032264;28;45492;-74
2021/12/09 10:47:13;;;;;;;;;2.00;0.00;;;;;21.68;34.41;100517.06;5030342;28;45454;-74
2021/12/09 10:49:47;;;;;;;;;1.00;1.00;;;;;21.66;34.63;100518.25;5031392;28;45493;-74
2021/12/09 10:52:38;;;;;;;;;0.00;0.00;;;;;21.61;34.50;100510.88;5031716;28;45293;-75
2021/12/09 10:55:24;;;;;;;;;0.00;0.00;;;;;21.35;34.74;100456.63;5031784;28;46358;-74
2021/12/09 10:58:02;;;;;;;;;1.00;0.00;;;;;21.67;34.46;100496.91;5032111;28;45326;-74
2021/12/09 11:00:35;;;;;;;;;1.00;1.00;;;;;21.32;34.62;100447.22;5030794;28;45440;-73
2021/12/09 11:03:13;;;;;;;;;2.00;0.00;;;;;21.31;34.84;100435.03;5032485;28;45365;-73
2021/12/09 11:05:50;;;;;;;;;2.00;0.50;;;;;21.66;34.42;100492.63;5016684;28;45445;-73
2021/12/09 11:08:40;;;;;;;;;0.00;0.00;;;;;21.66;34.72;100491.78;5033033;27;45369;-72
2021/12/09 11:11:14;;;;;;;;;1.00;1.00;;;;;21.66;34.84;100489.13;5034301;28;45492;-74
2021/12/09 11:13:39;;;;;;;;;0.00;0.00;;;;;21.66;34.69;100481.19;5033962;28;45336;-73
2021/12/09 11:16:07;;;;;;;;;4.00;0.00;;;;;21.62;34.39;100480.78;5031857;28;45305;-73
2021/12/09 11:18:43;;;;;;;;;1.33;0.00;;;;;21.67;34.92;100474.91;5031846;28;45391;-74
2021/12/09 11:21:15;;;;;;;;;0.00;0.00;;;;;21.67;34.69;100480.19;5032120;27;45460;-74
2021/12/09 11:23:42;;;;;;;;;0.00;0.00;;;;;21.66;34.26;100487.31;5016654;28;45314;-74
2021/12/09 11:29:26;;;;;;;;;2.00;0.50;;;;;21.60;34.55;100461.56;5029768;28;45411;-74
2021/12/09 11:35:16;;;;;;;;;1.00;1.00;;;;;21.66;34.12;100482.03;5033098;28;45377;-74
2021/12/09 11:37:53;;;;;;;;;0.00;0.00;;;;;21.67;34.60;100467.78;5030616;28;46289;-74
2021/12/09 11:43:01;;;;;;;;;0.00;0.00;;;;;21.59;34.61;100449.38;5031586;27;45389;-74
2021/12/09 11:45:37;;;;;;;;;0.00;0.00;;;;;;;;5031771;28;45899;-73